Time;durP1;ratioP1;P1;durP2;ratioP2;P2;SDS_P1;SDS_P2;PMS_P1;PMS_P2;Temp;Humidity;BMP_temperature;BMP_pressure;BME280_temperature;BME280_humidity;BME280_pressure;Samples;Min_cycle;Max_cycle;Signal;HPM_P1;HPM_P2
2021/12/06 00:01:23;;;;;;;24.83;11.57;;;;;;;3.04;83.70;98103.34;4260515;33;31787;-74
2021/12/06 00:03:58;;;;;;;25.98;10.88;;;;;;;2.91;85.09;98100.78;4261384;33;34619;-73
2021/12/06 00:06:28;;;;;;;27.45;13.10;;;;;;;2.94;83.96;98122.19;4260925;33;36220;-74
2021/12/06 00:08:56;;;;;;;25.67;10.63;;;;;;;2.98;85.09;98118.78;4261349;33;34270;-74
2021/12/06 00:11:24;;;;;;;21.67;11.12;;;;;;;2.95;83.61;98123.94;4261741;33;33870;-74
2021/12/06 00:14:02;;;;;;;19.30;9.98;;;;;;;3.05;83.96;98124.75;4261400;33;34006;-74
2021/12/06 00:16:30;;;;;;;22.67;10.52;;;;;;;3.50;82.58;98125.59;4261063;33;34566;-74
2021/12/06 00:18:59;;;;;;;29.90;13.23;;;;;;;3.58;82.35;98126.44;4262341;33;34484;-74
2021/12/06 00:21:27;;;;;;;26.48;10.40;;;;;;;3.42;82.23;98129.88;4261777;33;36358;-73
2021/12/06 00:23:55;;;;;;;21.48;11.43;;;;;;;2.64;85.35;98131.59;4261705;33;33976;-73
2021/12/06 00:26:23;;;;;;;22.75;11.48;;;;;;;2.76;86.55;98117.91;4261603;33;35217;-74
2021/12/06 00:28:57;;;;;;;21.62;9.55;;;;;;;3.31;84.16;98111.88;4249472;33;34561;-74
2021/12/06 00:31:31;;;;;;;25.88;11.48;;;;;;;3.35;84.34;98117.87;4260850;33;34634;-75
2021/12/06 00:34:04;;;;;;;23.52;10.52;;;;;;;3.54;82.91;98129.84;4261339;33;34025;-74
2021/12/06 00:36:39;;;;;;;21.98;10.35;;;;;;;3.96;81.04;98129.75;4261092;33;36032;-74
2021/12/06 00:39:11;;;;;;;22.00;10.90;;;;;;;3.91;80.42;98129.75;4262055;33;34449;-74
2021/12/06 00:41:40;;;;;;;21.67;10.57;;;;;;;3.64;81.52;98130.69;4248102;33;34489;-74
2021/12/06 00:44:08;;;;;;;19.65;9.90;;;;;;;3.22;84.23;98128.19;4247533;33;34743;-74
2021/12/06 00:46:37;;;;;;;23.12;10.80;;;;;;;3.39;83.03;98120.47;4262117;33;33493;-74
2021/12/06 00:49:07;;;;;;;23.10;11.40;;;;;;;3.34;83.57;98126.47;4249584;33;34617;-74
2021/12/06 00:51:36;;;;;;;23.85;10.20;;;;;;;3.79;82.22;98145.25;4249345;33;34125;-74
2021/12/06 00:54:04;;;;;;;20.02;10.30;;;;;;;3.97;81.12;98149.47;4261119;33;33892;-75
2021/12/06 00:56:33;;;;;;;25.05;12.55;;;;;;;3.84;80.68;98156.37;4249160;33;35856;-73
2021/12/06 00:59:00;;;;;;;24.00;10.05;;;;;;;4.37;78.82;98147.56;4249471;33;34436;-73
2021/12/06 01:01:28;;;;;;;22.70;9.73;;;;;;;4.82;76.62;98141.28;4260573;33;31978;-73
2021/12/06 01:03:57;;;;;;;19.00;9.57;;;;;;;4.00;78.98;98144.31;4262394;33;34018;-73
2021/12/06 01:06:25;;;;;;;24.23;9.90;;;;;;;3.65;80.66;98150.41;4260396;33;34928;-74
2021/12/06 01:08:53;;;;;;;20.40;9.88;;;;;;;4.12;79.85;98156.28;4248714;33;34227;-74
2021/12/06 01:11:22;;;;;;;24.23;12.30;;;;;;;3.95;79.48;98133.16;4261286;33;33741;-74
2021/12/06 01:13:49;;;;;;;21.37;10.05;;;;;;;4.12;78.95;98122.81;4262027;33;33894;-75
2021/12/06 01:16:17;;;;;;;21.83;9.45;;;;;;;4.76;76.55;98129.31;4259787;33;35006;-74
2021/12/06 01:18:46;;;;;;;18.65;9.23;;;;;;;3.86;80.88;98121.19;4261982;33;34521;-74
2021/12/06 01:21:24;;;;;;;19.05;9.60;;;;;;;4.18;79.20;98122.75;4261562;33;34394;-74
2021/12/06 01:23:58;;;;;;;17.10;8.32;;;;;;;3.90;80.00;98133.19;4261692;33;34706;-74
2021/12/06 01:29:59;;;;;;;18.35;9.15;;;;;;;3.63;81.97;98128.97;4246950;33;34585;-74
2021/12/06 01:32:01;;;;;;;16.25;9.45;;;;;;;3.97;80.26;98134.00;4256968;33;34562;-74
2021/12/06 01:40:06;;;;;;;21.40;9.05;;;;;;;3.90;80.12;98127.16;4251006;33;34506;-73
2021/12/06 01:42:33;;;;;;;23.80;9.88;;;;;;;3.16;82.56;98135.03;4248843;33;34320;-73
2021/12/06 01:45:03;;;;;;;16.02;9.68;;;;;;;3.32;82.15;98123.03;4260466;33;33917;-73
2021/12/06 01:47:35;;;;;;;18.00;9.43;;;;;;;2.47;84.86;98134.16;4261831;33;35186;-73
2021/12/06 01:50:22;;;;;;;29.80;10.65;;;;;;;2.94;83.63;98126.50;4261272;33;33796;-73
2021/12/06 01:52:54;;;;;;;20.83;10.90;;;;;;;2.56;84.54;98129.88;4260743;33;33609;-73
2021/12/06 01:55:31;;;;;;;21.58;8.57;;;;;;;2.47;84.11;98123.88;4259995;33;33798;-73
2021/12/06 01:58:00;;;;;;;17.40;9.38;;;;;;;1.99;87.86;98128.00;4261773;33;34820;-73
2021/12/06 02:00:36;;;;;;;14.43;8.57;;;;;;;1.96;86.87;98145.97;4246265;33;35494;-73
2021/12/06 02:03:05;;;;;;;14.23;8.23;;;;;;;2.01;88.44;98141.72;4261409;33;33478;-74
2021/12/06 02:05:35;;;;;;;16.33;8.40;;;;;;;2.28;86.92;98135.81;4261396;33;33853;-73
2021/12/06 02:08:05;;;;;;;15.23;7.65;;;;;;;2.49;84.42;98133.28;4249317;33;35730;-74
2021/12/06 02:10:34;;;;;;;16.85;8.65;;;;;;;2.56;83.91;98124.72;4248481;33;35324;-73
2021/12/06 02:13:04;;;;;;;14.43;7.12;;;;;;;2.40;84.42;98128.97;4262094;33;33940;-74
2021/12/06 02:15:42;;;;;;;19.37;8.25;;;;;;;2.62;83.90;98129.91;4260984;33;34769;-74
2021/12/06 02:19:02;;;;;;;16.48;7.90;;;;;;;2.87;82.07;98123.06;4260798;33;34951;-74
2021/12/06 02:21:29;;;;;;;15.38;7.47;;;;;;;2.31;84.09;98119.53;4247020;33;34396;-74
2021/12/06 02:24:00;;;;;;;11.70;7.25;;;;;;;2.46;85.11;98118.72;4249872;33;34453;-74
2021/12/06 02:26:28;;;;;;;14.18;8.35;;;;;;;2.90;82.18;98109.38;4248256;33;34642;-74
2021/12/06 02:28:56;;;;;;;14.60;7.25;;;;;;;2.97;82.92;98117.06;4248245;33;36008;-74
2021/12/06 02:31:27;;;;;;;15.02;6.60;;;;;;;3.34;80.86;98118.75;4261070;33;35270;-74
2021/12/06 02:33:55;;;;;;;15.13;8.15;;;;;;;2.70;83.15;98119.63;4262021;33;33909;-73
2021/12/06 02:36:24;;;;;;;13.13;7.95;;;;;;;2.54;84.44;98122.19;4259776;33;33926;-73
2021/12/06 02:38:52;;;;;;;13.88;6.82;;;;;;;1.94;87.01;98123.69;4261496;33;35082;-73
2021/12/06 02:41:20;;;;;;;17.12;7.60;;;;;;;2.24;86.56;98116.13;4259216;33;35342;-73
2021/12/06 02:47:14;;;;;;;15.20;7.85;;;;;;;1.53;89.09;98132.91;4259932;33;33880;-73
2021/12/06 02:50:18;;;;;;;14.80;7.47;;;;;;;1.40;89.98;98120.88;4260739;33;34927;-73
2021/12/06 02:53:05;;;;;;;14.48;7.60;;;;;;;2.03;86.89;98129.75;4260340;33;34021;-73
2021/12/06 02:55:54;;;;;;;13.20;8.05;;;;;;;2.53;85.22;98129.88;4259958;33;33706;-74
2021/12/06 03:01:19;;;;;;;14.45;7.25;;;;;;;2.68;84.41;98140.16;4248851;33;35264;-74
2021/12/06 03:04:07;;;;;;;14.82;7.78;;;;;;;2.59;82.81;98145.31;4248232;33;35164;-73
2021/12/06 03:07:11;;;;;;;10.68;6.12;;;;;;;2.11;84.97;98152.03;4256481;33;33791;-74
2021/12/06 03:09:40;;;;;;;15.65;6.50;;;;;;;2.78;83.58;98154.75;4261531;33;33869;-74
2021/12/06 03:12:11;;;;;;;13.65;7.22;;;;;;;2.88;81.43;98150.50;4248015;33;35148;-74
2021/12/06 03:14:55;;;;;;;14.50;7.57;;;;;;;2.42;84.55;98142.72;4261296;33;35314;-74
2021/12/06 03:17:27;;;;;;;15.95;7.47;;;;;;;2.23;84.64;98146.94;4260500;33;34489;-73
2021/12/06 03:19:56;;;;;;;17.50;7.15;;;;;;;2.09;86.06;98139.19;4261387;33;33991;-73
2021/12/06 03:22:26;;;;;;;12.37;7.00;;;;;;;2.04;86.95;98141.72;4250088;33;35810;-73
2021/12/06 03:24:54;;;;;;;13.05;7.85;;;;;;;2.57;83.82;98157.28;4248774;33;34573;-74
2021/12/06 03:27:22;;;;;;;17.42;7.57;;;;;;;2.37;85.38;98149.56;4235576;33;33512;-73
2021/12/06 03:29:50;;;;;;;13.95;7.93;;;;;;;2.00;86.35;98149.41;4246982;33;33895;-74
2021/12/06 03:32:19;;;;;;;17.12;7.90;;;;;;;2.25;86.08;98146.06;4256800;33;34977;-74
2021/12/06 03:34:48;;;;;;;14.15;7.65;;;;;;;2.73;83.63;98153.88;4261115;33;35160;-74
2021/12/06 03:37:15;;;;;;;16.77;7.00;;;;;;;2.85;82.53;98153.06;4259301;33;33566;-74
2021/12/06 03:39:47;;;;;;;14.45;7.37;;;;;;;2.54;83.97;98158.16;4246598;33;33355;-74
2021/12/06 03:42:22;;;;;;;14.43;7.60;;;;;;;2.26;84.09;98162.38;4259115;33;35930;-74
2021/12/06 03:44:52;;;;;;;14.52;7.68;;;;;;;2.61;83.15;98166.72;4259932;33;35260;-73
2021/12/06 03:47:27;;;;;;;11.95;7.50;;;;;;;2.39;84.23;98169.25;4260216;33;33797;-74
2021/12/06 03:49:56;;;;;;;13.48;7.50;;;;;;;1.96;86.42;98165.63;4247949;33;34783;-73
2021/12/06 03:52:24;;;;;;;11.60;7.10;;;;;;;1.66;87.24;98165.50;4259874;33;35999;-73
2021/12/06 03:54:53;;;;;;;13.38;6.30;;;;;;;2.04;85.68;98157.13;4247691;33;35530;-74
2021/12/06 03:57:21;;;;;;;12.02;6.55;;;;;;;2.17;85.04;98154.59;4247173;33;34380;-73
2021/12/06 03:59:51;;;;;;;14.48;7.18;;;;;;;1.85;85.94;98155.31;4247812;33;33902;-74
2021/12/06 04:02:22;;;;;;;11.57;6.03;;;;;;;2.58;83.34;98153.88;4246735;33;35061;-78
2021/12/06 04:04:52;;;;;;;10.88;5.18;;;;;;;2.40;83.79;98154.66;4236665;33;35284;-74
2021/12/06 04:07:22;;;;;;;11.90;6.15;;;;;;;2.44;83.32;98164.97;4249227;33;34613;-75
2021/12/06 04:09:50;;;;;;;10.63;5.87;;;;;;;2.89;81.05;98157.34;4262680;33;34047;-73
2021/12/06 04:12:18;;;;;;;12.48;5.85;;;;;;;2.65;81.65;98153.03;4261758;33;35081;-74
2021/12/06 04:14:47;;;;;;;12.27;6.68;;;;;;;2.32;83.37;98146.97;4262752;33;35285;-73
2021/12/06 04:17:16;;;;;;;12.37;6.62;;;;;;;2.13;84.00;98151.16;4249350;33;33814;-73
2021/12/06 04:19:45;;;;;;;10.57;5.93;;;;;;;2.21;84.06;98153.78;4261849;33;34023;-73
2021/12/06 04:22:14;;;;;;;11.45;6.55;;;;;;;1.78;86.04;98157.00;4261610;33;36057;-73
2021/12/06 04:24:43;;;;;;;10.50;5.62;;;;;;;1.65;86.81;98168.91;4249957;33;34251;-74
2021/12/06 04:27:16;;;;;;;10.77;6.30;;;;;;;1.86;85.96;98163.03;4261377;33;33880;-73
2021/12/06 04:29:48;;;;;;;13.62;6.68;;;;;;;1.64;87.00;98171.47;4262614;33;33972;-74
2021/12/06 04:32:17;;;;;;;10.13;6.25;;;;;;;1.90;86.20;98176.75;4261849;33;35181;-74
2021/12/06 04:34:45;;;;;;;13.35;7.28;;;;;;;1.85;86.25;98174.16;4249802;33;35355;-74
2021/12/06 04:37:14;;;;;;;11.23;6.55;;;;;;;2.34;84.28;98170.94;4248898;33;33666;-74
2021/12/06 04:39:42;;;;;;;9.27;5.57;;;;;;;2.44;83.65;98174.41;4260388;33;33762;-73
2021/12/06 04:42:10;;;;;;;12.07;5.47;;;;;;;1.94;84.93;98173.34;4260794;33;35117;-73
2021/12/06 04:44:39;;;;;;;14.15;7.85;;;;;;;2.21;84.02;98169.19;4261460;33;35168;-74
2021/12/06 04:47:07;;;;;;;14.43;7.10;;;;;;;1.48;87.21;98171.37;4248590;33;33704;-73
2021/12/06 04:49:36;;;;;;;14.75;7.70;;;;;;;2.00;85.95;98170.81;4262470;33;33870;-74
2021/12/06 04:52:07;;;;;;;10.43;5.85;;;;;;;1.79;85.43;98188.66;4259796;33;35014;-74
2021/12/06 04:54:41;;;;;;;15.88;8.52;;;;;;;2.02;85.82;98196.50;4262478;33;34495;-74
2021/12/06 04:57:15;;;;;;;16.60;7.18;;;;;;;1.94;86.03;98190.44;4249165;33;33567;-74
2021/12/06 04:59:51;;;;;;;15.10;7.62;;;;;;;1.54;87.07;98198.78;4260132;33;34732;-73
2021/12/06 05:02:24;;;;;;;16.85;8.90;;;;;;;1.54;88.14;98190.22;4261772;33;35078;-73
2021/12/06 05:05:04;;;;;;;16.75;8.35;;;;;;;1.65;87.66;98189.44;4261319;33;34621;-73
2021/12/06 05:07:47;;;;;;;17.35;8.90;;;;;;;1.54;86.63;98200.50;4261679;33;33721;-74
2021/12/06 05:10:16;;;;;;;14.60;7.32;;;;;;;2.10;85.78;98212.81;4248780;33;34022;-74
2021/12/06 05:12:44;;;;;;;15.48;8.65;;;;;;;1.94;85.21;98204.16;4248763;33;35900;-73
2021/12/06 05:15:13;;;;;;;18.60;9.13;;;;;;;1.68;87.12;98198.88;4249323;33;34415;-77
2021/12/06 05:17:43;;;;;;;17.65;7.65;;;;;;;1.60;88.04;98214.19;4260193;33;34503;-73
2021/12/06 05:20:13;;;;;;;20.48;9.32;;;;;;;1.82;87.54;98211.78;4260958;33;33028;-73
2021/12/06 05:22:43;;;;;;;16.02;8.20;;;;;;;1.99;86.45;98217.84;4259915;33;35951;-73
2021/12/06 05:25:12;;;;;;;19.65;9.00;;;;;;;1.87;85.83;98220.34;4262012;33;34614;-73
2021/12/06 05:27:41;;;;;;;17.20;9.38;;;;;;;1.66;87.28;98224.53;4260591;33;33806;-74
2021/12/06 05:30:11;;;;;;;20.85;9.05;;;;;;;2.27;85.26;98230.84;4262014;33;33873;-74
2021/12/06 05:32:41;;;;;;;18.40;9.45;;;;;;;1.89;86.59;98227.22;4248657;33;35242;-74
2021/12/06 05:35:11;;;;;;;21.05;8.90;;;;;;;2.06;85.68;98226.44;4248929;33;34513;-74
2021/12/06 05:37:46;;;;;;;17.62;9.18;;;;;;;2.23;84.42;98226.56;4255169;33;33777;-73
2021/12/06 05:40:19;;;;;;;16.67;8.40;;;;;;;2.45;84.43;98210.37;4261867;33;34749;-74
2021/12/06 05:42:47;;;;;;;16.48;8.70;;;;;;;3.00;81.36;98213.91;4239061;33;35030;-74
2021/12/06 05:45:19;;;;;;;12.63;7.35;;;;;;;3.00;80.66;98224.19;4247589;33;35485;-74
2021/12/06 05:47:48;;;;;;;20.42;8.55;;;;;;;2.52;83.30;98223.22;4256905;33;34434;-74
2021/12/06 05:50:17;;;;;;;10.80;6.45;;;;;;;2.43;82.93;98221.47;4261890;33;33815;-74
2021/12/06 05:52:45;;;;;;;14.18;7.28;;;;;;;2.94;81.70;98226.78;4239678;33;35019;-74
2021/12/06 05:55:13;;;;;;;14.77;8.05;;;;;;;2.82;81.84;98225.03;4247686;33;34719;-74
2021/12/06 05:57:43;;;;;;;18.62;7.75;;;;;;;2.40;83.65;98219.78;4255517;33;34550;-74
2021/12/06 06:00:14;;;;;;;15.50;8.98;;;;;;;2.76;81.87;98233.59;4248937;33;35098;-74
2021/12/06 06:02:42;;;;;;;21.70;8.98;;;;;;;2.47;82.77;98238.63;4260781;33;35228;-73
2021/12/06 06:05:10;;;;;;;17.30;8.50;;;;;;;2.15;83.67;98244.47;4261782;33;34620;-74
2021/12/06 06:07:38;;;;;;;21.15;8.98;;;;;;;2.47;83.58;98239.50;4259088;33;34453;-74
2021/12/06 06:10:08;;;;;;;17.77;8.55;;;;;;;2.58;82.00;98254.09;4261700;33;33916;-78
2021/12/06 06:12:36;;;;;;;22.48;10.00;;;;;;;2.06;84.52;98258.13;4260368;33;35079;-74
2021/12/06 06:15:04;;;;;;;25.20;11.35;;;;;;;2.54;83.60;98258.38;4261677;33;34465;-73
2021/12/06 06:17:40;;;;;;;23.02;9.55;;;;;;;1.93;83.96;98266.62;4260819;33;34560;-74
2021/12/06 06:20:20;;;;;;;16.25;8.82;;;;;;;1.70;87.20;98266.47;4261716;33;34743;-73
2021/12/06 06:22:48;;;;;;;18.85;9.25;;;;;;;1.69;87.11;98265.59;4259158;33;35957;-73
2021/12/06 06:25:16;;;;;;;22.80;10.43;;;;;;;2.14;84.53;98272.75;4261635;33;35199;-74
2021/12/06 06:27:45;;;;;;;18.37;8.45;;;;;;;2.84;81.99;98274.72;4259736;33;33765;-73
2021/12/06 06:30:14;;;;;;;16.58;8.45;;;;;;;2.00;84.87;98277.78;4247248;33;33905;-73
2021/12/06 06:32:43;;;;;;;15.35;7.87;;;;;;;1.63;86.84;98280.09;4248179;33;36025;-73
2021/12/06 06:35:11;;;;;;;22.42;9.35;;;;;;;2.07;86.22;98274.41;4261605;33;34481;-74
2021/12/06 06:37:40;;;;;;;17.52;8.95;;;;;;;1.95;86.15;98285.44;4248095;33;33616;-73
2021/12/06 06:40:08;;;;;;;19.00;9.15;;;;;;;2.14;85.55;98288.16;4261345;33;33982;-73
2021/12/06 06:42:36;;;;;;;23.40;10.18;;;;;;;1.35;88.91;98294.37;4259469;33;35219;-73
2021/12/06 06:45:11;;;;;;;16.77;8.80;;;;;;;1.38;89.84;98297.84;4260324;33;35241;-74
2021/12/06 06:47:39;;;;;;;20.88;9.60;;;;;;;1.98;87.62;98295.75;4260178;33;32834;-73
2021/12/06 06:50:08;;;;;;;18.35;9.73;;;;;;;1.86;88.14;98301.66;4259417;33;34579;-73
2021/12/06 06:52:36;;;;;;;24.95;10.30;;;;;;;1.97;88.02;98311.13;4259815;33;35243;-74
2021/12/06 06:55:05;;;;;;;19.92;9.57;;;;;;;2.00;87.94;98314.59;4248575;33;34456;-74
2021/12/06 06:57:33;;;;;;;22.23;10.02;;;;;;;2.13;86.31;98314.66;4260672;33;33748;-74
2021/12/06 07:00:05;;;;;;;24.23;11.10;;;;;;;2.19;87.78;98319.81;4260112;33;33893;-74
2021/12/06 07:02:33;;;;;;;22.62;10.05;;;;;;;2.13;87.37;98322.38;4259884;33;35169;-74
2021/12/06 07:05:02;;;;;;;22.67;11.20;;;;;;;2.46;85.57;98320.00;4260708;33;35169;-74
2021/12/06 07:07:30;;;;;;;24.60;12.82;;;;;;;2.57;85.19;98316.63;4259074;33;33423;-74
2021/12/06 07:09:57;;;;;;;24.37;11.07;;;;;;;2.03;86.76;98330.00;4260005;33;32775;-74
2021/12/06 07:12:26;;;;;;;24.30;11.82;;;;;;;2.23;86.51;98337.84;4260437;33;35125;-74
2021/12/06 07:14:54;;;;;;;24.25;11.30;;;;;;;2.03;87.11;98339.41;4259956;33;34488;-73
2021/12/06 07:17:22;;;;;;;25.92;10.93;;;;;;;2.49;84.99;98342.28;4260203;33;33755;-74
2021/12/06 07:19:50;;;;;;;28.15;11.27;;;;;;;2.15;85.60;98347.19;4259960;33;33272;-74
2021/12/06 07:22:18;;;;;;;27.52;13.75;;;;;;;2.66;84.47;98352.63;4260375;33;36174;-74
2021/12/06 07:24:46;;;;;;;22.73;11.63;;;;;;;2.05;86.84;98346.28;4261058;33;35309;-73
2021/12/06 07:27:14;;;;;;;27.70;12.10;;;;;;;2.32;86.39;98346.47;4258241;33;34036;-74
2021/12/06 07:29:42;;;;;;;29.60;13.05;;;;;;;2.18;86.59;98343.81;4261113;33;34777;-74
2021/12/06 07:32:10;;;;;;;25.33;11.65;;;;;;;1.84;87.35;98348.69;4260219;33;35072;-74
2021/12/06 07:34:38;;;;;;;27.55;12.98;;;;;;;1.89;87.51;98353.00;4260863;33;35266;-74
2021/12/06 07:37:06;;;;;;;25.58;11.27;;;;;;;1.92;89.16;98361.59;4258771;33;33846;-74
2021/12/06 07:39:34;;;;;;;31.05;12.27;;;;;;;1.59;90.67;98358.75;4260790;33;34083;-74
2021/12/06 07:42:02;;;;;;;33.17;14.82;;;;;;;2.10;87.61;98366.88;4261891;33;35215;-74
2021/12/06 07:44:31;;;;;;;31.08;14.20;;;;;;;2.04;87.73;98366.81;4261752;33;34546;-74
2021/12/06 07:46:59;;;;;;;28.27;13.48;;;;;;;1.99;88.28;98368.47;4249037;33;33857;-74
2021/12/06 07:49:27;;;;;;;29.42;13.85;;;;;;;2.24;87.21;98369.50;4261604;33;33989;-74
2021/12/06 07:52:16;;;;;;;32.35;12.63;;;;;;;2.11;89.30;98375.44;4260816;33;35734;-75
2021/12/06 07:54:44;;;;;;;28.02;14.27;;;;;;;2.23;87.74;98375.53;4262532;33;34425;-73
2021/12/06 07:57:12;;;;;;;28.60;12.23;;;;;;;1.83;88.33;98375.19;4261679;33;34571;-74
2021/12/06 07:59:40;;;;;;;33.15;13.62;;;;;;;2.26;87.84;98373.81;4262452;33;34033;-74
2021/12/06 08:02:09;;;;;;;33.95;14.65;;;;;;;2.72;85.88;98365.53;4249036;33;35768;-74
2021/12/06 08:04:38;;;;;;;30.95;13.27;;;;;;;1.62;89.72;98373.28;4261414;33;34727;-73
2021/12/06 08:07:06;;;;;;;25.70;13.18;;;;;;;2.36;87.43;98369.59;4261667;33;33735;-74
2021/12/06 08:09:34;;;;;;;25.25;11.25;;;;;;;2.34;86.90;98366.16;4262670;33;34840;-73
2021/12/06 08:12:02;;;;;;;26.77;12.57;;;;;;;2.14;87.34;98372.88;4261070;33;35175;-73
2021/12/06 08:14:30;;;;;;;28.55;12.15;;;;;;;2.06;88.68;98365.97;4261350;33;34482;-73
2021/12/06 08:16:58;;;;;;;26.08;11.63;;;;;;;2.09;88.31;98363.44;4261719;33;33784;-75
2021/12/06 08:19:26;;;;;;;25.52;12.30;;;;;;;2.06;89.28;98365.97;4262369;33;34104;-73
2021/12/06 08:21:54;;;;;;;16.70;9.60;;;;;;;2.27;88.25;98374.69;4261618;33;35074;-73
2021/12/06 08:24:22;;;;;;;28.70;11.68;;;;;;;2.57;87.07;98375.72;4248103;33;34156;-77
2021/12/06 08:26:50;;;;;;;25.08;11.50;;;;;;;2.24;87.67;98380.66;4247858;33;34469;-73
2021/12/06 08:29:18;;;;;;;25.92;11.40;;;;;;;2.14;87.77;98383.16;4261155;33;33521;-74
2021/12/06 08:31:46;;;;;;;26.80;11.55;;;;;;;2.02;89.21;98387.34;4262383;33;35989;-73
2021/12/06 08:34:14;;;;;;;21.55;10.48;;;;;;;2.31;87.96;98388.41;4259272;33;34363;-74
2021/12/06 08:36:42;;;;;;;29.98;13.40;;;;;;;2.22;88.98;98396.91;4262293;33;33586;-74
2021/12/06 08:39:10;;;;;;;28.35;11.73;;;;;;;1.98;88.48;98397.59;4261476;33;33953;-73
2021/12/06 08:41:38;;;;;;;20.83;8.60;;;;;;;1.81;90.03;98405.97;4261384;33;35933;-73
2021/12/06 08:44:06;;;;;;;20.73;9.52;;;;;;;2.39;88.80;98415.87;4261292;33;34220;-74
2021/12/06 08:46:38;;;;;;;25.80;11.82;;;;;;;2.49;87.48;98410.78;4262222;33;34622;-73
2021/12/06 08:49:08;;;;;;;27.40;12.13;;;;;;;2.47;87.57;98409.09;4258496;33;34665;-74
2021/12/06 08:51:44;;;;;;;25.75;11.57;;;;;;;2.43;88.16;98425.31;4261627;33;35174;-76
2021/12/06 08:54:14;;;;;;;24.83;13.30;;;;;;;2.19;88.07;98422.56;4261354;33;34407;-74
2021/12/06 08:56:43;;;;;;;34.03;12.45;;;;;;;1.96;90.12;98418.09;4262176;33;34524;-73
2021/12/06 08:59:11;;;;;;;25.58;13.57;;;;;;;2.45;88.83;98417.59;4261456;33;33948;-73
2021/12/06 09:01:41;;;;;;;29.48;12.60;;;;;;;2.60;86.32;98425.44;4261363;33;35885;-73
2021/12/06 09:04:34;;;;;;;17.48;10.05;;;;;;;1.95;88.92;98424.06;4237416;33;34218;-73
2021/12/06 09:07:10;;;;;;;25.42;11.48;;;;;;;2.52;88.02;98421.94;4235553;33;34437;-73
2021/12/06 09:09:49;;;;;;;28.00;12.60;;;;;;;2.52;86.84;98415.94;4247751;33;34012;-73
2021/12/06 09:12:21;;;;;;;28.77;13.10;;;;;;;2.42;88.01;98418.47;4247988;33;35969;-74
2021/12/06 09:14:49;;;;;;;27.37;10.68;;;;;;;2.53;88.36;98409.97;4262053;33;34649;-73
2021/12/06 09:17:18;;;;;;;17.73;9.77;;;;;;;2.22;89.17;98412.31;4259980;33;33544;-74
2021/12/06 09:19:46;;;;;;;25.20;12.40;;;;;;;2.46;87.99;98406.50;4248695;33;33637;-73
2021/12/06 09:22:16;;;;;;;25.25;11.50;;;;;;;2.47;88.61;98396.22;4247653;33;35152;-73
2021/12/06 09:24:46;;;;;;;21.12;10.77;;;;;;;2.34;88.20;98385.87;4247883;33;34546;-74
2021/12/06 09:27:14;;;;;;;25.98;13.95;;;;;;;2.79;87.33;98390.41;4246857;33;33608;-73
2021/12/06 09:29:42;;;;;;;20.17;10.52;;;;;;;2.44;88.23;98379.94;4262039;33;33897;-73
2021/12/06 09:32:14;;;;;;;21.10;10.90;;;;;;;2.74;88.14;98381.81;4261358;33;34987;-73
2021/12/06 09:34:44;;;;;;;24.73;10.48;;;;;;;2.83;87.67;98376.72;4260254;33;34473;-73
2021/12/06 09:37:14;;;;;;;29.50;11.88;;;;;;;2.72;87.59;98378.37;4261330;33;33550;-73
2021/12/06 09:39:42;;;;;;;20.48;10.70;;;;;;;2.71;87.57;98384.38;4241208;33;33965;-73
2021/12/06 09:42:10;;;;;;;20.52;9.68;;;;;;;2.93;88.11;98379.31;4260606;33;36008;-74
2021/12/06 09:44:39;;;;;;;18.67;11.25;;;;;;;2.78;86.70;98387.84;4247418;33;34496;-73
2021/12/06 09:47:07;;;;;;;25.45;11.60;;;;;;;2.53;87.95;98385.13;4246574;33;33614;-73
2021/12/06 09:49:35;;;;;;;22.75;11.45;;;;;;;2.12;90.24;98384.84;4259879;33;32963;-73
2021/12/06 09:52:06;;;;;;;19.05;10.52;;;;;;;2.39;89.66;98384.19;4260691;33;35070;-73
2021/12/06 09:54:38;;;;;;;19.45;9.73;;;;;;;2.81;87.36;98378.41;4261133;33;34373;-73
2021/12/06 09:57:08;;;;;;;23.12;12.63;;;;;;;2.60;88.39;98386.03;4259597;33;33716;-73
2021/12/06 09:59:39;;;;;;;21.37;11.15;;;;;;;2.94;87.64;98378.47;4259152;33;33921;-74
2021/12/06 10:02:14;;;;;;;21.33;9.48;;;;;;;2.82;86.61;98369.87;4261815;33;35183;-74
2021/12/06 10:04:48;;;;;;;12.07;7.68;;;;;;;2.45;88.94;98361.97;4261391;33;34374;-73
2021/12/06 10:07:18;;;;;;;19.08;10.48;;;;;;;2.59;89.38;98356.03;4248670;33;33054;-73
2021/12/06 10:09:47;;;;;;;29.67;11.85;;;;;;;2.20;90.96;98357.50;4261831;33;34270;-73
2021/12/06 10:12:16;;;;;;;22.98;11.75;;;;;;;2.64;89.98;98352.63;4248951;33;35692;-73
2021/12/06 10:14:45;;;;;;;21.75;10.95;;;;;;;2.97;88.25;98352.78;4246859;33;33033;-73
2021/12/06 10:17:15;;;;;;;20.15;9.98;;;;;;;2.82;87.21;98353.56;4260905;33;33760;-73
2021/12/06 10:19:45;;;;;;;21.40;10.10;;;;;;;2.65;88.24;98345.78;4261609;33;33617;-73
2021/12/06 10:22:15;;;;;;;22.10;11.52;;;;;;;2.55;88.12;98355.16;4259275;33;34267;-73
2021/12/06 10:24:51;;;;;;;16.05;9.40;;;;;;;2.23;89.86;98357.53;4261665;33;34616;-74
2021/12/06 10:27:19;;;;;;;21.75;11.30;;;;;;;2.78;89.45;98352.69;4260788;33;33600;-73
2021/12/06 10:30:06;;;;;;;20.17;11.12;;;;;;;2.49;90.78;98341.41;4261742;33;33613;-73
2021/12/06 10:32:36;;;;;;;17.45;9.98;;;;;;;2.72;89.36;98344.09;4259317;33;35953;-73
2021/12/06 10:35:14;;;;;;;21.75;12.05;;;;;;;2.56;89.53;98353.44;4260815;33;34389;-73
2021/12/06 10:37:45;;;;;;;21.98;11.18;;;;;;;2.49;91.29;98361.97;4260747;33;33855;-73
2021/12/06 10:40:18;;;;;;;21.12;9.82;;;;;;;2.63;91.57;98373.19;4261670;33;33888;-73
2021/12/06 10:42:48;;;;;;;17.65;10.10;;;;;;;2.59;89.45;98381.72;4260574;33;35193;-73
2021/12/06 10:45:44;;;;;;;18.77;11.70;;;;;;;2.96;88.67;98381.91;4261381;33;34567;-73
2021/12/06 10:48:20;;;;;;;17.85;10.52;;;;;;;2.91;89.37;98404.16;4260687;33;34504;-73
2021/12/06 10:50:50;;;;;;;14.77;8.23;;;;;;;3.03;86.30;98407.66;4259272;33;33799;-73
2021/12/06 10:53:24;;;;;;;19.50;9.55;;;;;;;3.09;85.82;98419.69;4259966;33;35020;-73
2021/12/06 10:55:56;;;;;;;18.40;9.68;;;;;;;2.67;88.42;98421.19;4259630;33;35192;-73
2021/12/06 10:58:27;;;;;;;19.98;9.32;;;;;;;3.13;87.59;98426.56;4247247;33;34543;-73
2021/12/06 11:01:05;;;;;;;17.55;10.30;;;;;;;2.92;87.83;98422.19;4245945;33;33687;-73
2021/12/06 11:03:40;;;;;;;15.45;9.65;;;;;;;2.85;88.11;98438.44;4261292;33;35964;-73
2021/12/06 11:06:12;;;;;;;11.88;8.32;;;;;;;3.36;86.99;98429.22;4260684;33;34578;-73
2021/12/06 11:08:42;;;;;;;13.05;7.35;;;;;;;3.44;85.79;98425.81;4261293;33;33704;-73
2021/12/06 11:11:13;;;;;;;17.10;7.62;;;;;;;2.98;87.22;98416.19;4259789;33;33859;-74
2021/12/06 11:13:47;;;;;;;14.43;8.02;;;;;;;3.36;85.85;98415.50;4248609;33;34961;-74
2021/12/06 11:16:21;;;;;;;17.73;6.82;;;;;;;2.51;89.93;98421.97;4251275;33;34510;-73
2021/12/06 11:18:54;;;;;;;18.77;8.85;;;;;;;2.82;88.65;98426.44;4253193;33;33548;-73
2021/12/06 11:22:03;;;;;;;19.45;8.35;;;;;;;3.36;85.56;98436.09;4252303;33;34477;-73
2021/12/06 11:24:39;;;;;;;8.88;5.68;;;;;;;3.16;87.41;98430.84;4264436;33;35964;-73
2021/12/06 11:27:09;;;;;;;12.25;8.10;;;;;;;3.31;87.26;98443.78;4252176;33;35357;-73
2021/12/06 11:29:50;;;;;;;14.90;9.18;;;;;;;2.89;87.69;98457.31;4265546;33;33711;-73
2021/12/06 11:32:20;;;;;;;14.98;8.65;;;;;;;2.81;87.70;98457.28;4252571;33;33877;-73
2021/12/06 11:34:50;;;;;;;14.68;7.95;;;;;;;3.45;85.65;98463.56;4265667;33;34179;-74
2021/12/06 11:37:29;;;;;;;15.98;7.07;;;;;;;3.34;85.66;98464.38;4264762;33;34485;-74
2021/12/06 11:40:12;;;;;;;18.12;8.98;;;;;;;3.65;84.55;98461.06;4252860;33;33734;-74
2021/12/06 11:43:05;;;;;;;13.93;7.85;;;;;;;3.38;87.30;98463.53;4264767;33;34679;-74
2021/12/06 11:45:57;;;;;;;17.20;8.02;;;;;;;3.74;85.28;98461.94;4264516;33;34869;-74
2021/12/06 11:48:30;;;;;;;20.52;9.85;;;;;;;3.66;85.31;98460.22;4264749;33;34408;-73
2021/12/06 11:51:08;;;;;;;21.65;10.30;;;;;;;3.35;86.01;98458.41;4264311;33;33787;-74
2021/12/06 11:53:39;;;;;;;13.00;7.68;;;;;;;3.31;85.92;98466.94;4251311;33;34708;-74
2021/12/06 11:56:10;;;;;;;18.12;9.70;;;;;;;3.85;84.52;98463.66;4238266;33;34937;-74
2021/12/06 11:58:49;;;;;;;18.23;10.45;;;;;;;3.92;83.77;98466.28;4238509;33;34453;-74
2021/12/06 12:01:27;;;;;;;17.42;10.48;;;;;;;3.96;83.67;98472.28;4255526;33;33722;-74
2021/12/06 12:03:58;;;;;;;15.90;7.82;;;;;;;4.25;81.87;98468.87;4265075;33;34164;-73